^^
Meteo Knjazevac Station Historical Data
Daily Summary for August 24, 2021 Units:  Metric    English   Both
Daily Weekly Monthly Yearly Custom
  High: Low: Average:
Temperature: 12.3 °C -0.8 °C 7.2 °C
Dew Point: 5.2 °C -3.3 °C 2.1 °C
Humidity: 83% 60% 71%
Wind Speed: 22.5km/h 0km/h 9.8km/h
Wind Gust: 40.2km/h - -
Wind- - SSW
Pressure: 1021.2 hPa 1014.4 hPa -
Precipitation: 0 mm    
Historical Graphs
 
 
Tabular Data for August 24, 2021
Time Temperature Dew Point Pressure Wind Wind Speed Wind Gust Humidity Rainfall Rate (Hourly) solar Conditions
00:00 -0.8 °C -3.3 °C 1021.2 hPa SSE 1.6 km/h 9.7 km/h 83% 0 mm 0 W/m2
00:10 -0.3 °C -3.2 °C 1021.2 hPa SE 4.8 km/h 12.9 km/h 81% 0 mm 0 W/m2
00:20 -0.2 °C -3.1 °C 1021.2 hPa SSW 4.8 km/h 14.5 km/h 81% 0 mm 0 W/m2
00:30 0.1 °C -2.9 °C 1020.9 hPa ENE 1.6 km/h 11.3 km/h 80% 0 mm 0 W/m2
00:40 0.6 °C -2.8 °C 1020.9 hPa SE 3.2 km/h 11.3 km/h 78% 0 mm 0 W/m2
00:50 0.8 °C -2.6 °C 1020.9 hPa ESE 3.2 km/h 8 km/h 78% 0 mm 0 W/m2
01:00 0.9 °C -2.7 °C 1020.5 hPa NNE 3.2 km/h 6.4 km/h 77% 0 mm 0 W/m2
01:10 1.1 °C -2.5 °C 1020.5 hPa ESE 3.2 km/h 9.7 km/h 77% 0 mm 0 W/m2
01:20 1.3 °C -2.3 °C 1020.5 hPa ENE 4.8 km/h 12.9 km/h 77% 0 mm 0 W/m2
01:30 1.5 °C -2.4 °C 1020.5 hPa ESE 3.2 km/h 12.9 km/h 75% 0 mm 0 W/m2
01:40 1.5 °C -2.4 °C 1020.5 hPa ENE 1.6 km/h 8 km/h 75% 0 mm 0 W/m2
01:50 1.6 °C -2.4 °C 1020.2 hPa East 4.8 km/h 9.7 km/h 75% 0 mm 0 W/m2
02:00 1.7 °C -2.3 °C 1020.2 hPa NE 4.8 km/h 9.7 km/h 75% 0 mm 0 W/m2
02:10 1.7 °C -2.4 °C 1019.9 hPa NE 3.2 km/h 8 km/h 74% 0 mm 0 W/m2
02:20 1.5 °C -2.4 °C 1019.9 hPa ESE 8 km/h 9.7 km/h 75% 0 mm 0 W/m2
02:30 1.5 °C -2.4 °C 1019.9 hPa South 1.6 km/h 8 km/h 75% 0 mm 0 W/m2
02:40 1.3 °C -2.6 °C 1019.5 hPa WSW 1.6 km/h 6.4 km/h 75% 0 mm 0 W/m2
02:50 1.2 °C -2.4 °C 1019.5 hPa SE 8 km/h 12.9 km/h 77% 0 mm 0 W/m2
03:00 1.5 °C -2.1 °C 1019.5 hPa SE 1.6 km/h 12.9 km/h 77% 0 mm 0 W/m2
03:10 1.5 °C -2.4 °C 1019.2 hPa SE 3.2 km/h 12.9 km/h 75% 0 mm 0 W/m2
03:20 1.6 °C -2.1 °C 1019.2 hPa Calm   12.9 km/h 77% 0 mm 0 W/m2
03:30 1.4 °C -2.2 °C 1019.2 hPa North 3.2 km/h 8 km/h 77% 0 mm 0 W/m2
03:40 1.3 °C -2.3 °C 1018.8 hPa SE 1.6 km/h 6.4 km/h 77% 0 mm 0 W/m2
03:50 1.4 °C -2.2 °C 1018.8 hPa SSE 3.2 km/h 9.7 km/h 77% 0 mm 0 W/m2
04:00 1.4 °C -2.2 °C 1018.8 hPa SSE 1.6 km/h 8 km/h 77% 0 mm 0 W/m2
04:10 1.6 °C -2.1 °C 1018.8 hPa SE 4.8 km/h 11.3 km/h 77% 0 mm 0 W/m2
04:20 1.6 °C -2 °C 1018.8 hPa SE 3.2 km/h 9.7 km/h 77% 0 mm 0 W/m2
04:30 1.7 °C -1.9 °C 1018.5 hPa SE 9.7 km/h 19.3 km/h 77% 0 mm 0 W/m2
04:40 1.9 °C -1.7 °C 1018.5 hPa SSE 3.2 km/h 11.3 km/h 77% 0 mm 0 W/m2
04:50 1.9 °C -1.7 °C 1018.8 hPa East 8 km/h 19.3 km/h 77% 0 mm 0 W/m2
05:00 1.9 °C -1.7 °C 1018.5 hPa East 8 km/h 14.5 km/h 77% 0 mm 0 W/m2
05:10 1.9 °C -1.7 °C 1018.5 hPa ESE 4.8 km/h 20.9 km/h 77% 0 mm 0 W/m2
05:20 1.9 °C -1.7 °C 1018.5 hPa East 4.8 km/h 16.1 km/h 77% 0 mm 0 W/m2
05:30 2 °C -1.8 °C 1018.5 hPa SE 9.7 km/h 19.3 km/h 76% 0 mm 0 W/m2
05:40 2.1 °C -1.5 °C 1018.5 hPa NNW 4.8 km/h 12.9 km/h 77% 0 mm 0 W/m2
05:50 2.2 °C -1.4 °C 1018.5 hPa West 4.8 km/h 6.4 km/h 77% 0 mm 0 W/m2
06:00 2.3 °C -1.3 °C 1018.2 hPa SSW 3.2 km/h 11.3 km/h 77% 0 mm 0 W/m2
06:10 2.4 °C -1.2 °C 1018.2 hPa West 1.6 km/h 8 km/h 77% 0 mm 0 W/m2
06:20 2.4 °C -1.2 °C 1018.5 hPa West 3.2 km/h 9.7 km/h 77% 0 mm 0 W/m2
06:30 2.5 °C -1.1 °C 1018.5 hPa West 3.2 km/h 8 km/h 77% 0 mm 0 W/m2
06:40 2.6 °C -0.8 °C 1018.5 hPa WNW 1.6 km/h 6.4 km/h 78% 0 mm 0 W/m2
06:50 2.8 °C -0.8 °C 1018.5 hPa SE 3.2 km/h 11.3 km/h 77% 0 mm 0 W/m2
07:00 3 °C -0.7 °C 1018.5 hPa NW 3.2 km/h 12.9 km/h 77% 0 mm 0 W/m2
07:10 3.2 °C -0.5 °C 1018.5 hPa SE 8 km/h 12.9 km/h 77% 0 mm 4 W/m2
07:20 3.6 °C 0.1 °C 1018.5 hPa SSE 4.8 km/h 17.7 km/h 78% 0 mm 7 W/m2
07:30 3.8 °C 0.1 °C 1018.5 hPa South 3.2 km/h 16.1 km/h 77% 0 mm 13 W/m2
07:40 4 °C 0.5 °C 1018.5 hPa South 9.7 km/h 22.5 km/h 78% 0 mm 21 W/m2
07:50 4.4 °C 0.7 °C 1018.8 hPa South 8 km/h 16.1 km/h 77% 0 mm 44 W/m2
08:00 4.6 °C 0.9 °C 1018.5 hPa SSW 8 km/h 14.5 km/h 77% 0 mm 47 W/m2
08:10 4.9 °C 1.2 °C 1018.5 hPa SSW 9.7 km/h 16.1 km/h 77% 0 mm 81 W/m2
08:20 5.1 °C 1.1 °C 1018.5 hPa SSW 8 km/h 22.5 km/h 75% 0 mm 109 W/m2
08:30 5.3 °C 1.2 °C 1018.2 hPa South 4.8 km/h 11.3 km/h 75% 0 mm 128 W/m2
08:40 5.6 °C 1.3 °C 1018.2 hPa South 3.2 km/h 11.3 km/h 74% 0 mm 147 W/m2
08:50 6.2 °C 1.9 °C 1018.2 hPa SW 8 km/h 16.1 km/h 74% 0 mm 165 W/m2
09:00 6.7 °C 2.2 °C 1018.2 hPa SW 4.8 km/h 16.1 km/h 73% 0 mm 183 W/m2
09:10 7.1 °C 2.6 °C 1018.2 hPa SW 4.8 km/h 9.7 km/h 73% 0 mm 200 W/m2
09:20 7.4 °C 2.7 °C 1018.2 hPa WSW 9.7 km/h 19.3 km/h 72% 0 mm 216 W/m2
09:30 7.5 °C 2.8 °C 1018.2 hPa SW 11.3 km/h 19.3 km/h 72% 0 mm 231 W/m2
09:40 7.8 °C 2.7 °C 1018.2 hPa SW 11.3 km/h 20.9 km/h 70% 0 mm 246 W/m2
09:50 8.1 °C 2.9 °C 1017.8 hPa SW 12.9 km/h 20.9 km/h 70% 0 mm 259 W/m2
10:00 8.3 °C 2.9 °C 1017.8 hPa SW 14.5 km/h 24.1 km/h 69% 0 mm 271 W/m2
10:10 8.5 °C 3.1 °C 1017.8 hPa SW 12.9 km/h 25.7 km/h 69% 0 mm 283 W/m2
10:20 8.7 °C 3.3 °C 1017.5 hPa SW 12.9 km/h 22.5 km/h 69% 0 mm 292 W/m2
10:30 9 °C 3.4 °C 1017.5 hPa SW 16.1 km/h 24.1 km/h 68% 0 mm 301 W/m2
10:40 9.2 °C 3.6 °C 1017.5 hPa SW 11.3 km/h 25.7 km/h 68% 0 mm 308 W/m2
10:50 9.5 °C 3.7 °C 1017.2 hPa SW 14.5 km/h 24.1 km/h 67% 0 mm 314 W/m2
11:00 9.7 °C 3.8 °C 1017.2 hPa SW 11.3 km/h 22.5 km/h 67% 0 mm 319 W/m2
11:10 9.9 °C 3.8 °C 1016.8 hPa SW 14.5 km/h 27.4 km/h 66% 0 mm 322 W/m2
11:20 10.1 °C 4.1 °C 1016.8 hPa SW 14.5 km/h 25.7 km/h 66% 0 mm 324 W/m2
11:30 10.1 °C 3.8 °C 1016.5 hPa SW 19.3 km/h 30.6 km/h 65% 0 mm 324 W/m2
11:40 10.2 °C 3.9 °C 1016.5 hPa SW 16.1 km/h 32.2 km/h 65% 0 mm 323 W/m2
11:50 10.5 °C 3.9 °C 1016.1 hPa SSW 16.1 km/h 29 km/h 64% 0 mm 321 W/m2
12:00 10.7 °C 4.1 °C 1016.1 hPa SW 14.5 km/h 40.2 km/h 64% 0 mm 317 W/m2
12:10 10.8 °C 4.3 °C 1016.1 hPa SW 14.5 km/h 27.4 km/h 64% 0 mm 312 W/m2
12:20 11.1 °C 4.6 °C 1015.8 hPa SSW 14.5 km/h 24.1 km/h 64% 0 mm 306 W/m2
12:30 11.4 °C 4.6 °C 1015.8 hPa SW 16.1 km/h 32.2 km/h 63% 0 mm 298 W/m2
12:40 11.5 °C 4.7 °C 1015.8 hPa SW 16.1 km/h 27.4 km/h 63% 0 mm 289 W/m2
12:50 11.7 °C 4.8 °C 1015.8 hPa SW 14.5 km/h 25.7 km/h 63% 0 mm 278 W/m2
13:00 11.9 °C 4.8 °C 1015.8 hPa SW 12.9 km/h 25.7 km/h 62% 0 mm 267 W/m2
13:10 11.9 °C 4.8 °C 1015.5 hPa SW 16.1 km/h 30.6 km/h 62% 0 mm 254 W/m2
13:20 12 °C 4.9 °C 1015.5 hPa SW 12.9 km/h 24.1 km/h 62% 0 mm 240 W/m2
13:30 12.1 °C 4.8 °C 1015.5 hPa SW 19.3 km/h 25.7 km/h 61% 0 mm 225 W/m2
13:40 12.3 °C 5.2 °C 1015.5 hPa SW 12.9 km/h 24.1 km/h 62% 0 mm 210 W/m2
13:50 12.3 °C 4.8 °C 1015.5 hPa SW 12.9 km/h 25.7 km/h 60% 0 mm 193 W/m2
14:00 12.3 °C 4.8 °C 1015.5 hPa SW 16.1 km/h 27.4 km/h 60% 0 mm 176 W/m2
14:10 12.3 °C 4.8 °C 1015.5 hPa SW 16.1 km/h 27.4 km/h 60% 0 mm 158 W/m2
14:20 12.3 °C 4.8 °C 1015.5 hPa SW 12.9 km/h 20.9 km/h 60% 0 mm 140 W/m2
14:30 12.2 °C 4.7 °C 1015.1 hPa SW 12.9 km/h 25.7 km/h 60% 0 mm 121 W/m2
14:40 12.1 °C 4.6 °C 1015.1 hPa SW 11.3 km/h 25.7 km/h 60% 0 mm 102 W/m2
14:50 12 °C 4.4 °C 1015.1 hPa SW 12.9 km/h 25.7 km/h 60% 0 mm 83 W/m2
15:00 11.9 °C 4.8 °C 1015.1 hPa SSW 14.5 km/h 24.1 km/h 62% 0 mm 65 W/m2
15:10 11.8 °C 4.7 °C 1015.1 hPa SW 14.5 km/h 22.5 km/h 62% 0 mm 47 W/m2
15:20 11.7 °C 4.7 °C 1015.1 hPa SW 9.7 km/h 20.9 km/h 62% 0 mm 31 W/m2
15:30 11.5 °C 4.4 °C 1015.1 hPa SW 12.9 km/h 20.9 km/h 62% 0 mm 15 W/m2
15:40 11.3 °C 4.3 °C 1015.1 hPa SW 11.3 km/h 22.5 km/h 62% 0 mm 19 W/m2
15:50 11.2 °C 4.4 °C 1015.1 hPa SW 9.7 km/h 19.3 km/h 63% 0 mm 11 W/m2
16:00 11 °C 4.2 °C 1015.1 hPa SW 9.7 km/h 19.3 km/h 63% 0 mm 0 W/m2
16:10 10.8 °C 4.3 °C 1015.1 hPa SW 8 km/h 16.1 km/h 64% 0 mm 0 W/m2
16:20 10.6 °C 4.1 °C 1015.1 hPa WSW 9.7 km/h 14.5 km/h 64% 0 mm 0 W/m2
16:30 10.4 °C 4.1 °C 1015.5 hPa WSW 4.8 km/h 22.5 km/h 65% 0 mm 0 W/m2
16:40 10.3 °C 4 °C 1015.5 hPa WSW 4.8 km/h 12.9 km/h 65% 0 mm 0 W/m2
16:50 10.1 °C 3.8 °C 1015.5 hPa WSW 3.2 km/h 9.7 km/h 65% 0 mm 0 W/m2
17:00 9.8 °C 3.9 °C 1015.5 hPa WNW 3.2 km/h 8 km/h 67% 0 mm 0 W/m2
17:10 9.5 °C 3.7 °C 1015.5 hPa West 4.8 km/h 11.3 km/h 67% 0 mm 0 W/m2
17:20 9.4 °C 3.8 °C 1015.5 hPa WSW 9.7 km/h 16.1 km/h 68% 0 mm 0 W/m2
17:30 9.3 °C 3.7 °C 1015.5 hPa SW 8 km/h 12.9 km/h 68% 0 mm 0 W/m2
17:40 9.3 °C 3.7 °C 1015.5 hPa SW 8 km/h 12.9 km/h 68% 0 mm 0 W/m2
17:50 9.2 °C 3.6 °C 1015.5 hPa SW 8 km/h 16.1 km/h 68% 0 mm 0 W/m2
18:00 9.2 °C 3.8 °C 1015.5 hPa SSW 3.2 km/h 11.3 km/h 69% 0 mm 0 W/m2
18:10 9.2 °C 3.8 °C 1015.5 hPa SSW 9.7 km/h 16.1 km/h 69% 0 mm 0 W/m2
18:20 9.1 °C 3.7 °C 1015.5 hPa SSW 1.6 km/h 12.9 km/h 69% 0 mm 0 W/m2
18:30 9.1 °C 3.9 °C 1015.5 hPa SW 8 km/h 11.3 km/h 70% 0 mm 0 W/m2
18:40 9.2 °C 4 °C 1015.5 hPa SW 3.2 km/h 14.5 km/h 70% 0 mm 0 W/m2
18:50 9.1 °C 3.9 °C 1015.5 hPa SW 4.8 km/h 11.3 km/h 70% 0 mm 0 W/m2
19:00 9.2 °C 4 °C 1015.5 hPa SW 9.7 km/h 16.1 km/h 70% 0 mm 0 W/m2
19:10 9.3 °C 4.1 °C 1015.5 hPa SW 9.7 km/h 22.5 km/h 70% 0 mm 0 W/m2
19:20 9.5 °C 4.3 °C 1015.5 hPa SW 12.9 km/h 25.7 km/h 70% 0 mm 0 W/m2
19:30 9.6 °C 4.4 °C 1015.5 hPa SW 16.1 km/h 27.4 km/h 70% 0 mm 0 W/m2
19:40 9.7 °C 4.5 °C 1015.5 hPa SW 16.1 km/h 27.4 km/h 70% 0 mm 0 W/m2
19:50 9.8 °C 4.6 °C 1015.1 hPa SW 16.1 km/h 27.4 km/h 70% 0 mm 0 W/m2
20:00 9.8 °C 4.6 °C 1015.1 hPa SW 14.5 km/h 27.4 km/h 70% 0 mm 0 W/m2
20:10 9.9 °C 4.7 °C 1015.1 hPa SW 20.9 km/h 33.8 km/h 70% 0 mm 0 W/m2
20:20 10 °C 4.8 °C 1015.1 hPa SW 19.3 km/h 30.6 km/h 70% 0 mm 0 W/m2
20:30 10 °C 4.8 °C 1015.1 hPa SW 19.3 km/h 27.4 km/h 70% 0 mm 0 W/m2
20:40 10.1 °C 4.9 °C 1015.1 hPa SW 14.5 km/h 25.7 km/h 70% 0 mm 0 W/m2
20:50 10.1 °C 4.9 °C 1015.1 hPa SW 14.5 km/h 33.8 km/h 70% 0 mm 0 W/m2
21:00 10.1 °C 4.7 °C 1015.1 hPa SW 19.3 km/h 33.8 km/h 69% 0 mm 0 W/m2
21:10 10.2 °C 4.8 °C 1015.1 hPa SW 12.9 km/h 29 km/h 69% 0 mm 0 W/m2
21:20 10.3 °C 4.8 °C 1015.1 hPa SW 22.5 km/h 33.8 km/h 69% 0 mm 0 W/m2
21:30 10.3 °C 4.8 °C 1015.1 hPa SW 12.9 km/h 24.1 km/h 69% 0 mm 0 W/m2
21:40 10.2 °C 4.9 °C 1015.1 hPa SW 14.5 km/h 24.1 km/h 70% 0 mm 0 W/m2
21:50 10.2 °C 4.8 °C 1015.1 hPa SW 20.9 km/h 25.7 km/h 69% 0 mm 0 W/m2
22:00 10.3 °C 4.8 °C 1015.1 hPa SW 22.5 km/h 32.2 km/h 69% 0 mm 0 W/m2
22:10 10.3 °C 4.8 °C 1015.1 hPa SW 16.1 km/h 27.4 km/h 69% 0 mm 0 W/m2
22:20 10.2 °C 4.8 °C 1015.1 hPa SW 19.3 km/h 29 km/h 69% 0 mm 0 W/m2
22:30 10.2 °C 4.9 °C 1015.1 hPa SW 16.1 km/h 35.4 km/h 70% 0 mm 0 W/m2
22:40 10.2 °C 4.9 °C 1015.1 hPa SW 20.9 km/h 29 km/h 70% 0 mm 0 W/m2
22:50 10.2 °C 4.9 °C 1014.8 hPa SW 16.1 km/h 32.2 km/h 70% 0 mm 0 W/m2
23:00 10.2 °C 4.9 °C 1014.8 hPa SW 19.3 km/h 32.2 km/h 70% 0 mm 0 W/m2
23:10 10.2 °C 4.9 °C 1014.8 hPa SW 16.1 km/h 27.4 km/h 70% 0 mm 0 W/m2
23:20 10.2 °C 4.9 °C 1014.8 hPa SW 16.1 km/h 29 km/h 70% 0 mm 0 W/m2
23:30 10.2 °C 4.9 °C 1014.8 hPa SW 16.1 km/h 27.4 km/h 70% 0 mm 0 W/m2
23:40 10.1 °C 4.9 °C 1014.4 hPa SW 16.1 km/h 25.7 km/h 70% 0 mm 0 W/m2
23:50 10.2 °C 4.9 °C 1014.4 hPa SW 14.5 km/h 27.4 km/h 70% 0 mm 0 W/m2
Knjazevac, Serbia
Compliments of Weather Underground - 2 mb